Time;durP1;ratioP1;P1;durP2;ratioP2;P2;SDS_P1;SDS_P2;PMS_P1;PMS_P2;Temp;Humidity;BMP_temperature;BMP_pressure;BME280_temperature;BME280_humidity;BME280_pressure;Samples;Min_cycle;Max_cycle;Signal;HPM_P1;HPM_P2
2023/11/03 00:01:25;;;;;;;0.60;0.60;;;10.50;99.90;;;;;;4401283;32;20073;-60
2023/11/03 00:03:50;;;;;;;0.93;0.73;;;10.50;99.90;;;;;;4407799;32;20065;-59
2023/11/03 00:06:16;;;;;;;0.40;0.40;;;10.50;99.90;;;;;;4406226;32;20078;-60
2023/11/03 00:08:42;;;;;;;0.43;0.43;;;10.40;99.90;;;;;;4402870;32;20082;-61
2023/11/03 00:11:07;;;;;;;0.70;0.60;;;10.40;99.90;;;;;;4403196;32;20537;-61
2023/11/03 00:13:35;;;;;;;0.80;0.68;;;10.40;99.90;;;;;;4404980;32;20086;-60
2023/11/03 00:16:00;;;;;;;0.32;0.32;;;10.40;99.90;;;;;;4405274;32;20517;-61
2023/11/03 00:18:26;;;;;;;0.50;0.50;;;10.40;99.90;;;;;;4399165;32;20193;-61
2023/11/03 00:20:52;;;;;;;1.15;0.82;;;10.40;99.90;;;;;;4403917;32;20094;-61
2023/11/03 00:23:17;;;;;;;0.40;0.40;;;10.40;99.90;;;;;;4406288;32;20128;-58
2023/11/03 00:25:43;;;;;;;4.05;0.70;;;10.40;99.90;;;;;;4404589;32;20070;-60
2023/11/03 00:28:08;;;;;;;0.70;0.70;;;10.40;99.90;;;;;;4404840;32;20133;-60
2023/11/03 00:30:35;;;;;;;1.75;0.85;;;10.40;99.90;;;;;;4404892;32;20073;-60
2023/11/03 00:33:01;;;;;;;0.50;0.50;;;10.40;99.90;;;;;;4401079;32;20089;-60
2023/11/03 00:35:26;;;;;;;0.65;0.50;;;10.30;99.90;;;;;;4405097;32;20124;-61
2023/11/03 00:37:53;;;;;;;0.43;0.43;;;10.40;99.90;;;;;;4400037;32;20073;-60
2023/11/03 00:40:18;;;;;;;0.50;0.50;;;10.40;99.90;;;;;;4404283;32;20102;-61
2023/11/03 00:42:44;;;;;;;0.80;0.62;;;10.40;99.90;;;;;;4402797;32;20082;-61
2023/11/03 00:45:10;;;;;;;0.75;0.75;;;10.50;99.90;;;;;;4401905;32;20838;-60
2023/11/03 00:47:35;;;;;;;0.40;0.40;;;10.50;99.90;;;;;;4404133;32;20080;-61
2023/11/03 00:50:01;;;;;;;4.43;1.52;;;10.50;99.90;;;;;;4402482;32;20069;-60
2023/11/03 00:52:27;;;;;;;3.28;0.95;;;10.50;99.90;;;;;;4404681;32;20074;-60
2023/11/03 00:54:53;;;;;;;0.82;0.82;;;10.50;99.90;;;;;;4406547;32;20086;-60
2023/11/03 00:57:19;;;;;;;0.40;0.40;;;10.50;99.90;;;;;;4400278;32;20101;-60
2023/11/03 00:59:44;;;;;;;0.35;0.35;;;10.40;99.90;;;;;;4404296;32;20584;-61
2023/11/03 01:02:11;;;;;;;0.40;0.40;;;10.40;99.90;;;;;;4406468;32;20141;-60
2023/11/03 01:04:37;;;;;;;0.50;0.50;;;10.40;99.90;;;;;;4402410;32;20077;-60
2023/11/03 01:07:03;;;;;;;0.60;0.60;;;10.40;99.90;;;;;;4405490;32;20105;-60
2023/11/03 01:09:29;;;;;;;0.35;0.35;;;10.40;99.90;;;;;;4406321;32;20532;-61
2023/11/03 01:11:55;;;;;;;0.52;0.52;;;10.40;99.90;;;;;;4404198;32;20159;-60
2023/11/03 01:14:22;;;;;;;1.00;0.62;;;10.40;99.90;;;;;;4401477;32;20102;-60
2023/11/03 01:16:49;;;;;;;0.40;0.40;;;10.50;99.90;;;;;;4403268;32;20589;-61
2023/11/03 01:19:18;;;;;;;3.58;0.52;;;10.50;99.90;;;;;;4400931;32;20097;-61
2023/11/03 01:21:45;;;;;;;2.58;0.60;;;10.40;99.90;;;;;;4401122;32;20066;-60
2023/11/03 01:24:11;;;;;;;0.30;0.30;;;10.40;99.90;;;;;;4406626;32;20455;-61
2023/11/03 01:26:37;;;;;;;0.30;0.30;;;10.40;99.90;;;;;;4403250;32;20508;-61
2023/11/03 01:29:05;;;;;;;1.83;0.52;;;10.40;99.90;;;;;;4405730;32;20078;-61
2023/11/03 01:31:31;;;;;;;0.30;0.30;;;10.40;99.90;;;;;;4405241;32;20074;-62
2023/11/03 01:33:56;;;;;;;19.95;0.60;;;10.40;99.90;;;;;;4400831;32;20144;-59
2023/11/03 01:36:22;;;;;;;0.30;0.30;;;10.40;99.90;;;;;;4402243;32;20069;-60
2023/11/03 01:38:48;;;;;;;0.62;0.62;;;10.40;99.90;;;;;;4401923;32;20069;-61
2023/11/03 01:41:15;;;;;;;0.30;0.30;;;10.40;99.90;;;;;;4404216;32;20146;-59
2023/11/03 01:44:01;;;;;;;0.55;0.52;;;10.50;99.90;;;;;;4403712;32;20071;-62
2023/11/03 01:46:27;;;;;;;0.57;0.55;;;10.40;99.90;;;;;;4400633;32;20151;-60
2023/11/03 01:48:52;;;;;;;1.05;0.70;;;10.30;99.90;;;;;;4406090;32;20616;-61
2023/11/03 01:51:18;;;;;;;0.50;0.50;;;10.40;99.90;;;;;;4403655;32;20112;-61
2023/11/03 01:53:44;;;;;;;0.32;0.32;;;10.40;99.90;;;;;;4404811;32;20192;-61
2023/11/03 01:56:10;;;;;;;1.75;0.62;;;10.40;99.90;;;;;;4400443;32;20077;-60
2023/11/03 01:58:35;;;;;;;1.45;1.00;;;10.40;99.90;;;;;;4399424;32;20081;-61
2023/11/03 02:01:02;;;;;;;0.40;0.40;;;10.40;99.90;;;;;;4405332;32;20620;-60
2023/11/03 02:03:28;;;;;;;0.40;0.40;;;10.50;99.90;;;;;;4405993;32;20082;-60
2023/11/03 02:05:53;;;;;;;0.40;0.40;;;10.40;99.90;;;;;;4403152;32;20568;-60
2023/11/03 02:08:19;;;;;;;0.40;0.40;;;10.40;99.90;;;;;;4405347;32;20154;-60
2023/11/03 02:10:44;;;;;;;1.58;0.68;;;10.20;99.90;;;;;;4406446;32;20506;-61
2023/11/03 02:13:11;;;;;;;0.40;0.40;;;10.10;99.90;;;;;;4404986;32;20221;-60
2023/11/03 02:15:39;;;;;;;0.40;0.40;;;10.10;99.90;;;;;;4400245;32;20073;-59
2023/11/03 02:18:07;;;;;;;1.00;0.40;;;10.00;99.90;;;;;;4394673;32;20061;-61
2023/11/03 02:20:33;;;;;;;1.77;0.73;;;10.00;99.90;;;;;;4403084;32;20216;-61
2023/11/03 02:22:59;;;;;;;1.02;0.95;;;9.90;99.90;;;;;;4406191;32;20070;-60
2023/11/03 02:25:24;;;;;;;0.73;0.50;;;9.90;99.90;;;;;;4401712;32;20082;-61
2023/11/03 02:27:50;;;;;;;1.55;1.17;;;9.90;99.90;;;;;;4399775;32;20197;-62
2023/11/03 02:30:16;;;;;;;0.40;0.40;;;9.90;99.90;;;;;;4402914;32;20308;-61
2023/11/03 02:32:41;;;;;;;0.40;0.40;;;9.80;99.90;;;;;;4400635;32;20098;-61
2023/11/03 02:35:07;;;;;;;0.55;0.40;;;9.90;99.90;;;;;;4402277;32;20509;-61
2023/11/03 02:37:32;;;;;;;0.50;0.50;;;9.90;99.90;;;;;;4398506;32;20076;-61
2023/11/03 02:39:58;;;;;;;0.40;0.40;;;10.00;99.90;;;;;;4401972;32;20074;-60
2023/11/03 02:42:23;;;;;;;0.52;0.50;;;9.90;99.90;;;;;;4402036;32;20089;-61
2023/11/03 02:44:49;;;;;;;0.52;0.52;;;10.00;99.90;;;;;;4405411;32;20072;-61
2023/11/03 02:47:14;;;;;;;0.37;0.37;;;10.00;99.90;;;;;;4406050;32;20136;-60
2023/11/03 02:49:40;;;;;;;0.22;0.22;;;10.00;99.90;;;;;;4407111;32;20878;-61
2023/11/03 02:52:05;;;;;;;0.60;0.60;;;9.90;99.90;;;;;;4404691;32;20078;-62
2023/11/03 02:54:31;;;;;;;0.30;0.30;;;9.90;99.90;;;;;;4404034;32;20082;-61
2023/11/03 02:56:57;;;;;;;0.40;0.40;;;9.90;99.90;;;;;;4399949;32;20068;-60
2023/11/03 02:59:22;;;;;;;0.60;0.60;;;9.90;99.90;;;;;;4403960;32;20129;-61
2023/11/03 03:01:48;;;;;;;0.60;0.60;;;9.80;99.90;;;;;;4405217;32;20141;-61
2023/11/03 03:04:13;;;;;;;0.52;0.52;;;9.80;99.90;;;;;;4405677;32;20399;-61
2023/11/03 03:06:42;;;;;;;0.30;0.30;;;9.80;99.90;;;;;;4408290;32;20124;-60
2023/11/03 03:09:08;;;;;;;0.52;0.52;;;9.80;99.90;;;;;;4406561;32;21150;-61
2023/11/03 03:11:33;;;;;;;0.40;0.40;;;9.70;99.90;;;;;;4402843;32;20356;-60
2023/11/03 03:13:59;;;;;;;0.52;0.40;;;9.70;99.90;;;;;;4404347;32;20537;-60
2023/11/03 03:16:27;;;;;;;0.20;0.20;;;9.70;99.90;;;;;;4401935;32;20066;-61
2023/11/03 03:18:52;;;;;;;0.73;0.60;;;9.60;99.90;;;;;;4402312;32;20066;-60
2023/11/03 03:21:18;;;;;;;1.67;0.43;;;9.60;99.90;;;;;;4407589;32;20066;-60
2023/11/03 03:23:43;;;;;;;0.30;0.30;;;9.60;99.90;;;;;;4405369;32;20081;-60
2023/11/03 03:26:09;;;;;;;0.30;0.30;;;9.70;99.90;;;;;;4405278;32;20086;-61
2023/11/03 03:28:35;;;;;;;0.77;0.70;;;9.60;99.90;;;;;;4406618;32;20205;-60
2023/11/03 03:31:00;;;;;;;6.45;2.30;;;9.60;99.90;;;;;;4405615;32;20089;-61
2023/11/03 03:33:26;;;;;;;0.40;0.40;;;9.60;99.90;;;;;;4404190;32;20069;-61
2023/11/03 03:35:51;;;;;;;0.32;0.32;;;9.50;99.90;;;;;;4404078;32;20133;-60
2023/11/03 03:38:17;;;;;;;0.65;0.40;;;9.50;99.90;;;;;;4399350;32;20078;-61
2023/11/03 03:40:42;;;;;;;0.75;0.75;;;9.60;99.90;;;;;;4405242;32;20070;-61
2023/11/03 03:43:08;;;;;;;1.40;0.77;;;9.60;99.90;;;;;;4408764;32;20524;-60
2023/11/03 03:45:33;;;;;;;0.62;0.62;;;9.60;99.90;;;;;;4407438;32;20097;-60
2023/11/03 03:47:59;;;;;;;0.40;0.40;;;9.60;99.90;;;;;;4405547;32;20069;-60
2023/11/03 03:50:24;;;;;;;0.30;0.30;;;9.60;99.90;;;;;;4404605;32;20137;-60
2023/11/03 03:52:50;;;;;;;0.30;0.30;;;9.60;99.90;;;;;;4405670;32;20580;-61
2023/11/03 03:55:15;;;;;;;0.30;0.30;;;9.60;99.90;;;;;;4401982;32;20088;-60
2023/11/03 03:57:41;;;;;;;0.20;0.20;;;9.60;99.90;;;;;;4400170;32;20071;-60
2023/11/03 04:02:35;;;;;;;0.65;0.65;;;9.60;99.90;;;;;;4404104;32;20066;-60
2023/11/03 04:05:01;;;;;;;1.95;0.43;;;9.70;99.90;;;;;;4404402;32;20062;-60
2023/11/03 04:07:27;;;;;;;1.25;0.60;;;9.70;99.90;;;;;;4403149;32;20525;-59
2023/11/03 04:09:52;;;;;;;0.70;0.47;;;9.70;99.90;;;;;;4403402;32;20126;-61
2023/11/03 04:12:18;;;;;;;0.30;0.30;;;9.60;99.90;;;;;;4406942;32;20093;-61
2023/11/03 04:14:43;;;;;;;0.45;0.45;;;9.60;99.90;;;;;;4404851;32;20082;-60
2023/11/03 04:17:09;;;;;;;0.70;0.70;;;9.60;99.90;;;;;;4402485;32;20143;-61
2023/11/03 04:19:34;;;;;;;0.37;0.37;;;9.70;99.90;;;;;;4404415;32;20086;-58
2023/11/03 04:22:00;;;;;;;0.60;0.60;;;9.70;99.90;;;;;;4401622;32;21596;-61
2023/11/03 04:24:25;;;;;;;0.45;0.45;;;9.60;99.90;;;;;;4406364;32;20058;-60
2023/11/03 04:26:51;;;;;;;0.20;0.20;;;9.70;99.90;;;;;;4403014;32;20641;-61
2023/11/03 04:29:18;;;;;;;0.50;0.50;;;9.70;99.90;;;;;;4406080;32;20533;-61
2023/11/03 04:31:45;;;;;;;0.40;0.40;;;9.70;99.90;;;;;;4405712;32;20169;-60
2023/11/03 04:34:10;;;;;;;5.05;2.25;;;9.70;99.90;;;;;;4401183;32;20057;-60
2023/11/03 04:36:36;;;;;;;0.40;0.40;;;9.70;99.90;;;;;;4403030;32;20098;-60
2023/11/03 04:39:01;;;;;;;0.40;0.40;;;9.70;99.90;;;;;;4403083;32;20165;-60
2023/11/03 04:41:28;;;;;;;0.37;0.37;;;9.70;99.90;;;;;;4403947;32;20073;-61
2023/11/03 04:43:54;;;;;;;0.30;0.30;;;9.70;99.90;;;;;;4405508;32;20061;-60
2023/11/03 04:46:19;;;;;;;0.40;0.40;;;9.60;99.90;;;;;;4407776;32;20129;-61
2023/11/03 04:48:45;;;;;;;0.40;0.40;;;9.60;99.90;;;;;;4402012;32;20652;-59
2023/11/03 04:51:11;;;;;;;0.30;0.30;;;9.60;99.90;;;;;;4407165;32;20153;-60
2023/11/03 04:53:37;;;;;;;1.67;0.93;;;9.60;99.90;;;;;;4405532;32;20542;-60
2023/11/03 04:56:03;;;;;;;0.30;0.30;;;9.60;99.90;;;;;;4405120;32;20093;-60
2023/11/03 04:58:29;;;;;;;0.30;0.30;;;9.50;99.90;;;;;;4399658;32;20082;-61
2023/11/03 05:00:54;;;;;;;0.40;0.40;;;9.50;99.90;;;;;;4405731;32;20093;-60
2023/11/03 05:03:20;;;;;;;0.40;0.40;;;9.60;99.90;;;;;;4402994;32;20086;-60
2023/11/03 05:05:46;;;;;;;0.40;0.40;;;9.60;99.90;;;;;;4402485;32;20550;-61
2023/11/03 05:08:11;;;;;;;0.30;0.30;;;9.60;99.90;;;;;;4404188;32;20085;-61
2023/11/03 05:10:38;;;;;;;0.45;0.45;;;9.60;99.90;;;;;;4404248;32;20098;-60
2023/11/03 05:13:04;;;;;;;0.30;0.30;;;9.60;99.90;;;;;;4406338;32;20066;-61
2023/11/03 05:15:30;;;;;;;0.98;0.93;;;9.60;99.90;;;;;;4406605;32;20086;-61
2023/11/03 05:17:56;;;;;;;0.30;0.30;;;9.60;99.90;;;;;;4400570;32;20069;-60
2023/11/03 05:20:22;;;;;;;1.27;0.75;;;9.60;99.90;;;;;;4404271;32;20141;-61
2023/11/03 05:22:48;;;;;;;0.60;0.60;;;9.60;99.90;;;;;;4406319;32;20517;-60
2023/11/03 05:25:13;;;;;;;0.40;0.40;;;9.70;99.90;;;;;;4402272;32;20065;-60
2023/11/03 05:27:39;;;;;;;1.00;0.60;;;9.70;99.90;;;;;;4402442;32;20073;-61
2023/11/03 05:30:05;;;;;;;0.30;0.30;;;9.60;99.90;;;;;;4408717;32;20337;-61
2023/11/03 05:32:33;;;;;;;1.77;0.77;;;9.60;99.90;;;;;;4400684;32;20096;-60
2023/11/03 05:35:00;;;;;;;2.03;0.75;;;9.60;99.90;;;;;;4401750;32;20102;-60
2023/11/03 05:37:26;;;;;;;0.20;0.20;;;9.60;99.90;;;;;;4399145;32;20501;-61
2023/11/03 05:39:51;;;;;;;0.30;0.30;;;9.60;99.90;;;;;;4403045;32;20077;-60
2023/11/03 05:42:17;;;;;;;1.35;0.95;;;9.70;99.90;;;;;;4402704;32;20509;-61
2023/11/03 05:44:42;;;;;;;0.40;0.40;;;9.60;99.90;;;;;;4401430;32;20124;-60
2023/11/03 05:47:08;;;;;;;0.50;0.50;;;9.60;99.90;;;;;;4403364;32;20690;-61
2023/11/03 05:49:33;;;;;;;0.50;0.50;;;9.60;99.90;;;;;;4405074;32;20511;-61
2023/11/03 05:51:59;;;;;;;0.30;0.30;;;9.60;99.90;;;;;;4404172;32;20160;-61
2023/11/03 05:54:24;;;;;;;0.40;0.40;;;9.50;99.90;;;;;;4404817;32;20098;-60
2023/11/03 05:56:50;;;;;;;0.65;0.60;;;9.50;99.90;;;;;;4397749;32;20101;-60
2023/11/03 05:59:15;;;;;;;0.32;0.32;;;9.50;99.90;;;;;;4404635;32;20553;-61
2023/11/03 06:04:06;;;;;;;0.32;0.32;;;9.50;99.90;;;;;;4403176;32;20610;-60
2023/11/03 06:06:32;;;;;;;1.48;0.70;;;9.40;99.90;;;;;;4403375;32;20094;-60
2023/11/03 06:08:57;;;;;;;0.40;0.40;;;9.40;99.90;;;;;;4402067;32;20831;-61
2023/11/03 06:11:23;;;;;;;0.30;0.30;;;9.40;99.90;;;;;;4400599;32;20184;-60
2023/11/03 06:13:48;;;;;;;0.32;0.32;;;9.30;99.90;;;;;;4402316;32;20066;-61
2023/11/03 06:16:18;;;;;;;0.35;0.35;;;9.30;99.90;;;;;;4403147;32;20415;-60
2023/11/03 06:18:45;;;;;;;2.22;0.40;;;9.30;99.90;;;;;;4401247;32;20435;-60
2023/11/03 06:21:11;;;;;;;0.40;0.40;;;9.30;99.90;;;;;;4400952;32;20122;-60
2023/11/03 06:23:37;;;;;;;0.30;0.30;;;9.30;99.90;;;;;;4406920;32;20074;-60
2023/11/03 06:26:04;;;;;;;2.08;0.62;;;9.30;99.90;;;;;;4404229;32;20066;-61
2023/11/03 06:28:29;;;;;;;0.30;0.30;;;9.30;99.90;;;;;;4403831;32;20065;-61
2023/11/03 06:30:55;;;;;;;0.40;0.40;;;9.20;99.90;;;;;;4404127;32;20090;-61
2023/11/03 06:33:21;;;;;;;0.40;0.40;;;9.10;99.90;;;;;;4403417;32;20074;-61
2023/11/03 06:35:47;;;;;;;1.37;0.80;;;9.20;99.90;;;;;;4402285;32;20066;-60
2023/11/03 06:38:12;;;;;;;0.40;0.40;;;9.20;99.90;;;;;;4396760;32;20073;-61
2023/11/03 06:40:37;;;;;;;1.10;1.00;;;9.20;99.90;;;;;;4405042;32;20112;-60
2023/11/03 06:43:04;;;;;;;0.28;0.28;;;9.20;99.90;;;;;;4404839;32;20110;-61
2023/11/03 06:45:31;;;;;;;0.47;0.47;;;9.20;99.90;;;;;;4403436;32;20156;-60
2023/11/03 06:47:56;;;;;;;0.35;0.35;;;9.20;99.90;;;;;;4403459;32;20245;-61
2023/11/03 06:50:22;;;;;;;0.20;0.20;;;9.30;99.90;;;;;;4404573;32;20510;-60
2023/11/03 06:52:50;;;;;;;0.62;0.62;;;9.20;99.90;;;;;;4403034;32;20078;-59
2023/11/03 06:55:16;;;;;;;0.25;0.25;;;9.20;99.90;;;;;;4403830;32;20481;-61
2023/11/03 06:57:41;;;;;;;1.15;0.60;;;9.20;99.90;;;;;;4399346;32;20072;-59
2023/11/03 07:02:35;;;;;;;0.30;0.30;;;9.20;99.90;;;;;;4403925;32;20113;-60
2023/11/03 07:05:03;;;;;;;0.40;0.40;;;9.30;99.90;;;;;;4401874;32;20133;-61
2023/11/03 07:07:28;;;;;;;3.40;0.73;;;9.30;99.90;;;;;;4405120;32;20105;-60
2023/11/03 07:09:54;;;;;;;0.30;0.30;;;9.30;99.90;;;;;;4402523;32;20053;-61
2023/11/03 07:12:20;;;;;;;2.60;0.75;;;9.30;99.90;;;;;;4403972;32;20066;-61
2023/11/03 07:14:47;;;;;;;0.20;0.20;;;9.30;99.90;;;;;;4405457;32;20425;-60
2023/11/03 07:17:13;;;;;;;0.22;0.22;;;9.40;99.90;;;;;;4384254;32;20165;-61
2023/11/03 07:19:40;;;;;;;0.37;0.37;;;9.40;99.90;;;;;;4397672;32;20069;-61
2023/11/03 07:22:05;;;;;;;0.98;0.95;;;9.40;99.90;;;;;;4388275;32;20074;-61
2023/11/03 07:24:31;;;;;;;12.00;1.35;;;9.50;99.90;;;;;;4404819;32;20105;-60
2023/11/03 07:26:58;;;;;;;0.43;0.43;;;9.40;99.90;;;;;;4402184;32;20133;-61
2023/11/03 07:29:24;;;;;;;0.50;0.50;;;9.40;99.90;;;;;;4385700;32;20077;-61
2023/11/03 07:31:49;;;;;;;2.08;1.30;;;9.40;99.90;;;;;;4404305;32;20078;-61
2023/11/03 07:34:14;;;;;;;0.30;0.30;;;9.40;99.90;;;;;;4405144;32;20061;-61
2023/11/03 07:36:40;;;;;;;0.20;0.20;;;9.40;99.90;;;;;;4403228;32;20073;-61
2023/11/03 07:39:06;;;;;;;0.30;0.30;;;9.50;99.90;;;;;;4401058;32;20132;-61
2023/11/03 07:41:34;;;;;;;0.35;0.35;;;9.50;99.90;;;;;;4404566;32;20081;-59
2023/11/03 07:44:00;;;;;;;0.30;0.30;;;9.60;99.90;;;;;;4390636;32;20554;-61
2023/11/03 07:46:26;;;;;;;0.30;0.30;;;9.60;99.90;;;;;;4404506;32;20081;-60
2023/11/03 07:48:52;;;;;;;2.03;1.02;;;9.60;99.90;;;;;;4406606;32;20065;-60
2023/11/03 07:51:21;;;;;;;0.28;0.28;;;9.60;99.90;;;;;;4407552;32;20066;-61
2023/11/03 07:53:46;;;;;;;0.60;0.60;;;9.50;99.90;;;;;;4406189;32;20392;-59
2023/11/03 07:56:12;;;;;;;0.73;0.47;;;9.50;99.90;;;;;;4403860;32;20316;-60
2023/11/03 07:58:37;;;;;;;0.30;0.30;;;9.60;99.90;;;;;;4403877;32;20151;-60
2023/11/03 08:01:05;;;;;;;0.30;0.30;;;9.60;99.90;;;;;;4405882;32;20073;-60
2023/11/03 08:03:30;;;;;;;0.30;0.30;;;9.60;99.90;;;;;;4405222;32;20070;-60
2023/11/03 08:05:57;;;;;;;0.30;0.30;;;9.70;99.90;;;;;;4402616;32;20081;-60
2023/11/03 08:08:23;;;;;;;50.72;5.15;;;9.70;99.90;;;;;;4405940;32;20077;-59
2023/11/03 08:10:50;;;;;;;0.40;0.40;;;9.70;99.90;;;;;;4405325;32;20101;-60
2023/11/03 08:13:16;;;;;;;0.40;0.40;;;9.70;99.90;;;;;;4403967;32;20106;-60
2023/11/03 08:15:42;;;;;;;0.40;0.40;;;9.80;99.90;;;;;;4403308;32;20586;-60
2023/11/03 08:18:07;;;;;;;0.30;0.30;;;9.80;99.90;;;;;;4398834;32;20151;-61
2023/11/03 08:20:33;;;;;;;0.22;0.22;;;9.80;99.90;;;;;;4405797;32;20475;-60
2023/11/03 08:22:58;;;;;;;0.30;0.30;;;9.80;99.90;;;;;;4402908;32;20082;-61
2023/11/03 08:25:28;;;;;;;2.80;0.65;;;9.80;99.90;;;;;;4404617;32;20120;-60
2023/11/03 08:27:53;;;;;;;0.30;0.30;;;9.90;99.90;;;;;;4403481;32;20073;-61
2023/11/03 08:30:19;;;;;;;1.40;0.90;;;9.90;99.90;;;;;;4404860;32;21087;-59
2023/11/03 08:32:46;;;;;;;1.10;0.95;;;9.90;99.90;;;;;;4403171;32;20061;-61
2023/11/03 08:35:12;;;;;;;0.52;0.52;;;10.00;99.90;;;;;;4404564;32;20065;-61
2023/11/03 08:37:40;;;;;;;0.80;0.80;;;10.00;99.90;;;;;;4401102;32;20540;-61
2023/11/03 08:40:08;;;;;;;15.52;1.50;;;10.00;99.90;;;;;;4406484;32;20081;-61
2023/11/03 08:42:34;;;;;;;0.25;0.25;;;10.00;99.90;;;;;;4405828;32;20065;-60
2023/11/03 08:44:59;;;;;;;0.30;0.30;;;10.00;99.90;;;;;;4401814;32;20545;-63
2023/11/03 08:47:25;;;;;;;0.30;0.30;;;10.00;99.90;;;;;;4401325;32;20082;-61
2023/11/03 08:49:51;;;;;;;0.40;0.40;;;10.00;99.90;;;;;;4402946;32;20081;-60
2023/11/03 08:52:17;;;;;;;0.30;0.30;;;10.00;99.90;;;;;;4402834;32;20062;-61
2023/11/03 08:54:42;;;;;;;0.30;0.30;;;10.10;99.90;;;;;;4402280;32;20090;-61
2023/11/03 08:57:09;;;;;;;0.30;0.30;;;10.10;99.90;;;;;;4402061;32;20165;-61
2023/11/03 08:59:36;;;;;;;0.20;0.20;;;10.10;99.90;;;;;;4403307;32;20470;-62
2023/11/03 09:02:01;;;;;;;1.65;0.62;;;10.10;99.90;;;;;;4406170;32;20482;-62
2023/11/03 09:04:27;;;;;;;0.50;0.50;;;10.20;99.90;;;;;;4402407;32;20073;-61
2023/11/03 09:06:52;;;;;;;0.30;0.30;;;10.20;99.90;;;;;;4403512;32;20057;-61
2023/11/03 09:09:18;;;;;;;15.25;2.15;;;10.20;99.90;;;;;;4405408;32;20415;-62
2023/11/03 09:11:43;;;;;;;0.93;0.93;;;10.20;99.90;;;;;;4405286;32;20098;-61
2023/11/03 09:14:10;;;;;;;0.35;0.35;;;10.30;99.90;;;;;;4403327;32;20443;-60
2023/11/03 09:16:35;;;;;;;0.47;0.47;;;10.20;99.90;;;;;;4401560;32;20089;-61
2023/11/03 09:19:01;;;;;;;0.30;0.30;;;10.30;99.90;;;;;;4402919;32;20106;-60
2023/11/03 09:21:27;;;;;;;0.68;0.65;;;10.30;99.90;;;;;;4403147;32;20086;-61
2023/11/03 09:23:52;;;;;;;2.25;0.65;;;10.30;99.90;;;;;;4403557;32;20148;-60
2023/11/03 09:26:18;;;;;;;0.28;0.28;;;10.30;99.90;;;;;;4402861;32;20097;-60
2023/11/03 09:28:44;;;;;;;3.12;1.10;;;10.40;99.90;;;;;;4401375;32;20485;-60
2023/11/03 09:31:10;;;;;;;0.30;0.30;;;10.50;99.90;;;;;;4402741;32;20546;-61
2023/11/03 09:33:36;;;;;;;0.40;0.40;;;10.50;99.90;;;;;;4392956;32;20128;-60
2023/11/03 09:36:04;;;;;;;0.30;0.30;;;10.50;99.90;;;;;;4400819;32;20066;-61
2023/11/03 09:38:31;;;;;;;0.20;0.20;;;10.50;99.90;;;;;;4401058;32;20148;-60
2023/11/03 09:40:56;;;;;;;0.32;0.32;;;10.60;99.90;;;;;;4405551;32;20070;-60
2023/11/03 09:43:22;;;;;;;0.65;0.65;;;10.60;99.90;;;;;;4405305;32;20082;-61
2023/11/03 09:45:48;;;;;;;0.50;0.50;;;10.70;99.90;;;;;;4404216;32;20061;-61
2023/11/03 09:48:17;;;;;;;0.73;0.73;;;10.70;99.90;;;;;;4401585;32;20110;-61
2023/11/03 09:50:43;;;;;;;0.40;0.40;;;10.60;99.90;;;;;;4400867;32;20087;-60
2023/11/03 09:53:11;;;;;;;0.40;0.40;;;10.70;99.90;;;;;;4405458;32;20089;-62
2023/11/03 09:55:37;;;;;;;2.05;0.40;;;10.70;99.90;;;;;;4405781;32;20097;-62
2023/11/03 09:58:05;;;;;;;0.65;0.65;;;10.80;99.90;;;;;;4393838;32;20085;-62
2023/11/03 10:00:32;;;;;;;0.40;0.40;;;10.70;99.90;;;;;;4403538;32;20070;-62
2023/11/03 10:02:57;;;;;;;4.50;0.52;;;10.80;99.90;;;;;;4407601;32;20073;-62
2023/11/03 10:05:25;;;;;;;0.40;0.40;;;10.80;99.90;;;;;;4403903;32;20073;-61
2023/11/03 10:08:00;;;;;;;0.32;0.32;;;10.80;99.90;;;;;;4404950;32;20078;-62
2023/11/03 10:10:25;;;;;;;0.30;0.30;;;10.80;99.90;;;;;;4403447;32;20090;-62
2023/11/03 10:12:50;;;;;;;0.40;0.40;;;10.80;99.90;;;;;;4404358;32;20066;-62
2023/11/03 10:15:16;;;;;;;0.40;0.40;;;10.90;99.90;;;;;;4405082;32;20069;-61
2023/11/03 10:17:45;;;;;;;0.60;0.60;;;10.90;99.90;;;;;;4401640;32;20165;-61
2023/11/03 10:20:12;;;;;;;0.40;0.40;;;10.90;99.90;;;;;;4401911;32;20086;-61
2023/11/03 10:22:39;;;;;;;0.40;0.40;;;10.90;99.90;;;;;;4406796;32;20070;-61
2023/11/03 10:25:07;;;;;;;3.70;0.68;;;10.90;99.90;;;;;;4403610;32;20125;-61
2023/11/03 10:27:32;;;;;;;0.82;0.70;;;10.90;99.90;;;;;;4402867;32;20074;-62
2023/11/03 10:29:59;;;;;;;2.30;0.40;;;11.00;99.90;;;;;;4388231;32;20101;-61
2023/11/03 10:32:24;;;;;;;2.47;0.60;;;10.90;99.90;;;;;;4402461;32;20074;-61
2023/11/03 10:34:53;;;;;;;0.40;0.40;;;10.90;99.90;;;;;;4401146;32;20128;-60
2023/11/03 10:37:21;;;;;;;0.52;0.52;;;11.00;99.90;;;;;;4399512;32;20082;-60
2023/11/03 10:39:46;;;;;;;0.40;0.40;;;11.00;99.90;;;;;;4404326;32;20480;-60
2023/11/03 10:42:15;;;;;;;0.43;0.37;;;11.00;99.90;;;;;;4402200;32;20089;-60
2023/11/03 10:44:41;;;;;;;0.95;0.60;;;11.00;99.90;;;;;;4404853;32;20794;-62
2023/11/03 10:47:12;;;;;;;0.32;0.32;;;11.00;99.90;;;;;;4406054;32;20530;-61
2023/11/03 10:49:40;;;;;;;;;;;11.00;99.90;;;;;;4401489;32;20082;-62
2023/11/03 10:52:16;;;;;;;0.60;0.60;;;11.00;99.90;;;;;;4402868;32;19974;-61
2023/11/03 10:55:07;;;;;;;0.30;0.30;;;11.00;99.90;;;;;;4402345;32;20069;-61
2023/11/03 10:57:33;;;;;;;0.90;0.60;;;11.00;99.90;;;;;;4396951;32;20256;-61
2023/11/03 11:02:38;;;;;;;0.30;0.30;;;11.00;99.90;;;;;;4402447;32;20070;-60
2023/11/03 11:05:16;;;;;;;1.77;0.95;;;11.00;99.90;;;;;;4404702;32;20477;-61
2023/11/03 11:07:49;;;;;;;0.30;0.30;;;11.00;99.90;;;;;;4403770;32;20062;-61
2023/11/03 11:10:18;;;;;;;0.30;0.30;;;11.00;99.90;;;;;;4406692;32;20074;-60
2023/11/03 11:12:46;;;;;;;0.30;0.30;;;11.00;99.90;;;;;;4404336;32;20153;-61
2023/11/03 11:15:18;;;;;;;0.82;0.80;;;11.00;99.90;;;;;;4406086;32;20136;-61
2023/11/03 11:17:44;;;;;;;0.40;0.40;;;11.00;99.90;;;;;;4398353;32;20065;-59
2023/11/03 11:20:14;;;;;;;8.10;1.10;;;11.10;99.90;;;;;;4387587;32;20062;-60
2023/11/03 11:22:41;;;;;;;0.30;0.30;;;11.10;99.90;;;;;;4405817;32;20093;-61
2023/11/03 11:25:10;;;;;;;0.47;0.47;;;11.10;99.90;;;;;;4403799;32;20310;-61
2023/11/03 11:27:38;;;;;;;3.42;1.02;;;11.10;99.90;;;;;;4404695;32;20572;-61
2023/11/03 11:30:10;;;;;;;0.35;0.35;;;11.20;99.90;;;;;;4402668;32;20133;-61
2023/11/03 11:32:35;;;;;;;0.30;0.30;;;11.20;99.90;;;;;;4405909;32;20069;-62
2023/11/03 11:35:01;;;;;;;7.22;0.60;;;11.20;99.90;;;;;;4402411;32;20073;-61
2023/11/03 11:37:29;;;;;;;0.35;0.35;;;11.20;99.90;;;;;;4401716;32;20066;-61
2023/11/03 11:39:57;;;;;;;0.65;0.65;;;11.00;99.90;;;;;;4402264;32;20061;-60
2023/11/03 11:42:26;;;;;;;6.37;0.68;;;11.10;99.90;;;;;;4405834;32;20086;-61
2023/11/03 11:44:52;;;;;;;1.20;0.80;;;11.10;99.90;;;;;;4401419;32;20509;-61
2023/11/03 11:47:23;;;;;;;2.45;0.75;;;11.20;99.90;;;;;;4406571;32;20620;-61
2023/11/03 11:49:49;;;;;;;0.30;0.30;;;11.30;99.90;;;;;;4401440;32;82233;-61
2023/11/03 11:52:14;;;;;;;0.30;0.30;;;11.30;99.90;;;;;;4404621;32;20086;-62
2023/11/03 11:54:40;;;;;;;0.37;0.37;;;11.30;99.90;;;;;;4404472;32;20502;-62
2023/11/03 11:57:07;;;;;;;0.30;0.30;;;11.30;99.90;;;;;;4401245;32;20074;-60
2023/11/03 11:59:33;;;;;;;0.30;0.30;;;11.30;99.90;;;;;;4403558;32;20086;-62
2023/11/03 12:02:00;;;;;;;0.20;0.20;;;11.20;99.90;;;;;;4405810;32;20054;-61
2023/11/03 12:04:26;;;;;;;0.47;0.47;;;11.30;99.90;;;;;;4405021;32;20640;-62
2023/11/03 12:06:52;;;;;;;0.40;0.40;;;11.20;99.90;;;;;;4405423;32;20125;-61
2023/11/03 12:09:18;;;;;;;2.67;0.75;;;11.30;99.90;;;;;;4405867;32;20402;-61
2023/11/03 12:11:44;;;;;;;1.75;0.77;;;11.30;99.90;;;;;;4403089;32;20082;-61
2023/11/03 12:14:10;;;;;;;1.45;0.88;;;11.30;99.90;;;;;;4407367;32;20545;-61
2023/11/03 12:16:37;;;;;;;0.70;0.47;;;11.20;99.90;;;;;;4403024;32;20176;-62
2023/11/03 12:19:04;;;;;;;0.37;0.37;;;11.10;99.90;;;;;;4398587;32;20070;-62
2023/11/03 12:21:30;;;;;;;20.70;0.85;;;11.10;99.90;;;;;;4398646;32;20528;-62
2023/11/03 12:23:58;;;;;;;0.70;0.70;;;11.20;99.90;;;;;;4406589;32;20381;-62
2023/11/03 12:26:24;;;;;;;5.28;1.75;;;11.30;99.90;;;;;;4405492;32;20090;-63
2023/11/03 12:28:50;;;;;;;0.40;0.40;;;11.50;99.90;;;;;;4404305;32;20121;-62
2023/11/03 12:31:17;;;;;;;0.45;0.45;;;11.60;99.90;;;;;;4405176;32;20074;-61
2023/11/03 12:33:44;;;;;;;0.35;0.35;;;11.60;99.90;;;;;;4404090;32;20132;-62
2023/11/03 12:36:10;;;;;;;6.80;1.85;;;11.70;99.90;;;;;;4401378;32;20070;-62
2023/11/03 12:38:45;;;;;;;1.25;1.15;;;11.80;99.90;;;;;;4399201;32;20086;-61
2023/11/03 12:41:13;;;;;;;0.68;0.68;;;12.00;99.90;;;;;;4404533;32;20072;-62
2023/11/03 12:43:40;;;;;;;0.30;0.30;;;12.10;99.90;;;;;;4403789;32;20081;-62
2023/11/03 12:46:08;;;;;;;0.40;0.40;;;12.30;99.90;;;;;;4400433;32;20537;-62
2023/11/03 12:48:33;;;;;;;0.40;0.40;;;12.40;99.90;;;;;;4401604;32;20078;-62
2023/11/03 12:50:59;;;;;;;24.75;1.17;;;12.60;99.90;;;;;;4401970;32;20089;-62
2023/11/03 12:53:26;;;;;;;0.65;0.57;;;12.50;99.90;;;;;;4406234;32;20058;-61
2023/11/03 12:56:00;;;;;;;0.30;0.30;;;12.50;99.90;;;;;;4403081;32;20145;-62